Time;durP1;ratioP1;P1;durP2;ratioP2;P2;SDS_P1;SDS_P2;PMS_P1;PMS_P2;Temp;Humidity;BMP_temperature;BMP_pressure;BME280_temperature;BME280_humidity;BME280_pressure;Samples;Min_cycle;Max_cycle;Signal;HPM_P1;HPM_P2
2022/11/17 00:00:41;;;;;;;1.95;0.70;;;11.30;99.90;;;;;;5027928;28;20550;-79
2022/11/17 00:03:12;;;;;;;2.97;0.70;;;11.30;99.90;;;;;;5027252;28;20044;-80
2022/11/17 00:05:39;;;;;;;1.45;0.50;;;11.30;99.90;;;;;;5011778;28;20052;-80
2022/11/17 00:08:06;;;;;;;3.33;1.73;;;11.40;99.90;;;;;;5027608;28;20803;-79
2022/11/17 00:10:33;;;;;;;3.03;1.23;;;11.30;99.90;;;;;;5027612;28;20063;-79
2022/11/17 00:15:45;;;;;;;3.33;1.25;;;11.40;99.90;;;;;;5061806;28;20469;-79
2022/11/17 00:23:45;;;;;;;2.20;1.10;;;11.40;99.90;;;;;;5017806;28;20776;-89
2022/11/17 00:26:32;;;;;;;2.92;1.02;;;11.40;99.90;;;;;;5030628;28;20105;-89
2022/11/17 00:29:01;;;;;;;2.85;1.00;;;11.40;99.90;;;;;;5059886;28;20048;-89
2022/11/17 00:34:21;;;;;;;3.25;0.80;;;11.40;99.90;;;;;;5038609;28;20052;-85
2022/11/17 00:36:52;;;;;;;2.50;1.58;;;11.50;99.90;;;;;;5019895;28;20128;-88
2022/11/17 00:39:21;;;;;;;0.90;0.60;;;11.50;99.90;;;;;;5034326;28;20084;-88
2022/11/17 00:41:47;;;;;;;1.40;0.50;;;11.50;99.90;;;;;;5035116;28;20138;-91
2022/11/17 00:44:14;;;;;;;2.65;1.23;;;11.50;99.90;;;;;;5031890;28;20045;-94
2022/11/17 00:46:45;;;;;;;1.25;0.68;;;11.50;99.90;;;;;;5026876;28;20064;-94
2022/11/17 00:49:15;;;;;;;0.65;0.50;;;11.50;99.90;;;;;;5035850;28;20102;-94
2022/11/17 00:51:42;;;;;;;0.95;0.50;;;11.50;99.90;;;;;;5070952;28;20487;-93
2022/11/17 00:54:10;;;;;;;0.65;0.47;;;11.50;99.90;;;;;;5047649;28;20082;-94
2022/11/17 00:56:37;;;;;;;1.42;0.50;;;11.50;99.90;;;;;;5041566;28;20048;-93
2022/11/17 00:59:05;;;;;;;1.75;0.60;;;11.60;99.90;;;;;;5039766;28;20044;-94
2022/11/17 01:01:33;;;;;;;1.17;0.50;;;11.60;99.90;;;;;;5054517;28;20131;-93
2022/11/17 01:04:03;;;;;;;0.80;0.32;;;11.60;99.90;;;;;;5037159;28;20095;-92
2022/11/17 01:06:34;;;;;;;0.45;0.30;;;11.60;99.90;;;;;;5017924;28;20060;-92
2022/11/17 01:09:03;;;;;;;1.38;0.52;;;11.60;99.90;;;;;;5019094;28;20098;-91
2022/11/17 01:11:30;;;;;;;0.63;0.30;;;11.60;99.90;;;;;;5057632;28;20130;-92
2022/11/17 01:13:58;;;;;;;1.23;0.40;;;11.70;99.90;;;;;;5056141;28;20045;-90
2022/11/17 01:16:25;;;;;;;0.65;0.40;;;11.70;99.90;;;;;;5009629;28;20056;-90
2022/11/17 01:18:53;;;;;;;0.75;0.60;;;11.70;99.90;;;;;;5020162;28;20081;-90
2022/11/17 01:21:24;;;;;;;0.60;0.30;;;11.70;99.90;;;;;;5040941;28;20060;-94
2022/11/17 01:23:54;;;;;;;0.65;0.40;;;11.70;99.90;;;;;;5020218;28;20052;-95
2022/11/17 01:26:26;;;;;;;0.40;0.30;;;11.70;99.90;;;;;;5048195;28;20131;-93
2022/11/17 01:28:54;;;;;;;1.42;0.57;;;11.70;99.90;;;;;;5019757;28;20071;-93
2022/11/17 01:31:26;;;;;;;0.50;0.40;;;11.70;99.90;;;;;;5030612;28;20059;-92
2022/11/17 01:33:53;;;;;;;1.15;0.50;;;11.70;99.90;;;;;;5021926;28;20068;-92
2022/11/17 01:36:26;;;;;;;1.38;0.60;;;11.70;99.90;;;;;;5033378;28;20419;-91
2022/11/17 01:38:53;;;;;;;0.63;0.32;;;11.70;99.90;;;;;;5024846;28;20483;-91
2022/11/17 01:41:21;;;;;;;0.55;0.30;;;11.70;99.90;;;;;;5040596;28;20048;-90
2022/11/17 01:44:12;;;;;;;1.00;0.25;;;11.60;99.90;;;;;;5040577;28;20132;-89
2022/11/17 01:46:39;;;;;;;0.30;0.20;;;11.70;99.90;;;;;;5031729;28;20493;-90
2022/11/17 01:49:10;;;;;;;0.25;0.25;;;11.60;99.90;;;;;;5055121;28;20045;-89
2022/11/17 01:51:42;;;;;;;0.40;0.35;;;11.60;99.90;;;;;;5036500;28;20049;-88
2022/11/17 01:54:10;;;;;;;0.60;0.40;;;11.60;99.90;;;;;;5035719;28;20048;-89
2022/11/17 01:56:38;;;;;;;0.90;0.32;;;11.60;99.90;;;;;;5018845;28;20045;-88
2022/11/17 01:59:09;;;;;;;1.35;0.40;;;11.60;99.90;;;;;;5003393;28;20471;-88
2022/11/17 02:01:54;;;;;;;2.20;0.50;;;11.50;99.90;;;;;;5033302;28;20056;-87
2022/11/17 02:04:28;;;;;;;2.03;0.80;;;11.50;99.90;;;;;;5039283;28;20740;-88
2022/11/17 02:07:16;;;;;;;2.78;0.75;;;11.50;99.90;;;;;;5050746;28;20055;-87
2022/11/17 02:09:43;;;;;;;3.83;1.58;;;11.50;99.90;;;;;;5039205;28;20265;-87
2022/11/17 02:12:12;;;;;;;3.53;1.70;;;11.50;99.90;;;;;;5037697;28;20147;-88
2022/11/17 02:14:39;;;;;;;3.05;1.60;;;11.40;99.90;;;;;;5037859;28;20479;-88
2022/11/17 02:17:06;;;;;;;5.57;2.22;;;11.40;99.90;;;;;;5021598;28;20048;-86
2022/11/17 02:19:41;;;;;;;5.95;2.80;;;11.30;99.90;;;;;;5023205;28;20052;-89
2022/11/17 02:22:46;;;;;;;3.42;2.10;;;11.30;99.90;;;;;;5054716;28;20044;-93
2022/11/17 02:25:34;;;;;;;4.85;3.00;;;11.30;99.90;;;;;;5067541;28;20049;-94
2022/11/17 02:28:11;;;;;;;6.05;2.50;;;11.30;99.90;;;;;;5062726;28;20391;-94
2022/11/17 02:30:47;;;;;;;7.65;2.80;;;11.30;99.90;;;;;;5069499;28;20067;-93
2022/11/17 02:33:52;;;;;;;6.97;3.35;;;11.30;99.90;;;;;;5082520;28;20048;-95
2022/11/17 02:36:32;;;;;;;8.02;4.85;;;11.20;99.90;;;;;;5054830;28;20080;-95
2022/11/17 02:38:58;;;;;;;10.45;5.05;;;11.10;99.90;;;;;;5034747;28;20519;-94
2022/11/17 02:41:30;;;;;;;7.22;4.78;;;11.00;99.90;;;;;;5060271;28;20090;-95
2022/11/17 02:44:09;;;;;;;6.40;4.15;;;10.90;99.90;;;;;;5023458;28;20663;-92
2022/11/17 02:46:47;;;;;;;4.07;3.22;;;10.80;99.90;;;;;;5036134;28;20406;-92
2022/11/17 02:49:23;;;;;;;6.78;3.40;;;10.70;99.90;;;;;;5034631;28;20099;-92
2022/11/17 02:51:52;;;;;;;5.30;3.40;;;10.60;99.90;;;;;;5022678;28;20463;-90
2022/11/17 02:54:20;;;;;;;5.43;2.95;;;10.50;99.90;;;;;;5035967;28;20533;-85
2022/11/17 02:56:52;;;;;;;3.63;2.65;;;10.40;99.90;;;;;;5020968;28;20106;-86
2022/11/17 02:59:52;;;;;;;7.07;3.03;;;10.20;99.90;;;;;;5035003;28;20040;-86
2022/11/17 03:02:46;;;;;;;4.43;2.83;;;10.10;99.90;;;;;;5055457;28;20099;-91
2022/11/17 03:05:32;;;;;;;5.82;3.17;;;9.90;99.90;;;;;;5053615;28;20163;-91
2022/11/17 03:08:02;;;;;;;3.83;2.90;;;9.80;99.90;;;;;;5037418;28;20139;-93
2022/11/17 03:10:59;;;;;;;3.47;2.25;;;9.70;99.90;;;;;;5042884;28;20496;-95
2022/11/17 03:13:51;;;;;;;2.65;1.95;;;9.60;99.90;;;;;;5034632;28;20055;-95
2022/11/17 03:16:29;;;;;;;3.60;1.88;;;9.50;99.90;;;;;;5042810;28;20108;-94
2022/11/17 03:19:30;;;;;;;4.55;1.83;;;9.50;99.90;;;;;;5057624;28;20057;-92
2022/11/17 03:22:16;;;;;;;2.50;1.52;;;9.40;99.90;;;;;;5038613;28;20826;-94
2022/11/17 03:24:53;;;;;;;;;;;9.30;99.90;;;;;;5035370;28;20104;-94
2022/11/17 03:27:24;;;;;;;2.22;1.17;;;9.20;99.90;;;;;;5034349;28;19986;-93
2022/11/17 03:29:57;;;;;;;4.10;1.20;;;9.20;99.90;;;;;;5017981;28;20056;-92
2022/11/17 03:32:24;;;;;;;1.35;0.90;;;9.20;99.90;;;;;;5049863;28;20559;-90
2022/11/17 03:34:59;;;;;;;1.17;0.82;;;9.20;99.90;;;;;;5017285;28;20056;-91
2022/11/17 03:37:27;;;;;;;1.00;0.70;;;9.10;99.90;;;;;;5025207;28;20057;-91
2022/11/17 03:39:56;;;;;;;0.70;0.45;;;9.10;99.90;;;;;;5053716;28;20045;-89
2022/11/17 03:42:25;;;;;;;0.50;0.50;;;9.10;99.90;;;;;;5037836;28;20053;-91
2022/11/17 03:45:16;;;;;;;1.02;0.55;;;9.10;99.90;;;;;;5053028;28;20049;-91
2022/11/17 03:47:43;;;;;;;0.38;0.30;;;9.10;99.90;;;;;;5056411;28;20082;-90
2022/11/17 03:50:20;;;;;;;0.80;0.55;;;9.10;99.90;;;;;;5053283;28;20049;-89
2022/11/17 03:52:47;;;;;;;0.20;0.20;;;9.10;99.90;;;;;;5021898;28;20547;-89
2022/11/17 03:55:14;;;;;;;0.40;0.40;;;9.00;99.90;;;;;;5036693;28;20063;-89
2022/11/17 03:57:55;;;;;;;0.60;0.47;;;9.00;99.90;;;;;;5052455;28;20053;-89
2022/11/17 04:00:24;;;;;;;0.50;0.40;;;9.00;99.90;;;;;;5037278;28;20415;-92
2022/11/17 04:02:53;;;;;;;1.17;0.50;;;9.00;99.90;;;;;;5041763;28;20139;-91
2022/11/17 04:05:23;;;;;;;0.20;0.20;;;9.00;99.90;;;;;;5025272;28;20060;-91
2022/11/17 04:07:50;;;;;;;0.20;0.20;;;8.90;99.90;;;;;;5024913;28;20485;-92
2022/11/17 04:10:24;;;;;;;0.52;0.35;;;9.00;99.90;;;;;;5031925;28;20580;-93
2022/11/17 04:15:57;;;;;;;0.80;0.40;;;8.90;99.90;;;;;;5040684;28;20144;-88
2022/11/17 04:18:26;;;;;;;0.55;0.30;;;8.90;99.90;;;;;;5007013;28;20055;-85
2022/11/17 04:21:10;;;;;;;0.57;0.45;;;8.90;99.90;;;;;;5022741;28;20045;-84
2022/11/17 04:23:42;;;;;;;0.57;0.25;;;8.80;99.90;;;;;;5022415;28;20040;-83
2022/11/17 04:28:57;;;;;;;0.82;0.30;;;8.80;99.90;;;;;;5039862;28;20131;-81
2022/11/17 04:31:25;;;;;;;1.65;0.43;;;8.80;99.90;;;;;;5018397;28;20643;-81
2022/11/17 04:33:53;;;;;;;0.65;0.40;;;8.70;99.90;;;;;;5050593;28;20041;-81
2022/11/17 04:36:25;;;;;;;0.65;0.40;;;8.70;99.90;;;;;;5051006;28;20411;-80
2022/11/17 04:38:53;;;;;;;0.82;0.50;;;8.70;99.90;;;;;;5050937;28;20049;-81
2022/11/17 04:44:11;;;;;;;0.75;0.60;;;8.70;99.90;;;;;;5053798;28;20056;-81
2022/11/17 04:46:38;;;;;;;1.40;0.68;;;8.70;99.90;;;;;;5033958;28;20060;-82
2022/11/17 04:49:06;;;;;;;0.98;0.50;;;8.70;99.90;;;;;;5050255;28;20053;-80
2022/11/17 04:51:33;;;;;;;0.70;0.63;;;8.70;99.90;;;;;;5050551;28;20052;-81
2022/11/17 04:54:01;;;;;;;0.57;0.50;;;8.70;99.90;;;;;;5049941;28;20057;-80
2022/11/17 04:56:28;;;;;;;1.58;0.80;;;8.70;99.90;;;;;;5034179;28;20395;-81
2022/11/17 04:58:55;;;;;;;1.10;0.52;;;8.60;99.90;;;;;;5050770;28;20054;-82
2022/11/17 05:01:23;;;;;;;0.82;0.75;;;8.70;99.90;;;;;;5050835;28;20506;-82
2022/11/17 05:03:51;;;;;;;0.77;0.65;;;8.70;99.90;;;;;;5017079;28;20403;-82
2022/11/17 05:06:24;;;;;;;1.35;0.88;;;8.70;99.90;;;;;;5033671;28;20051;-82
2022/11/17 05:08:54;;;;;;;2.30;1.00;;;8.70;99.90;;;;;;5048736;28;20711;-81
2022/11/17 05:14:09;;;;;;;2.10;1.00;;;8.70;99.90;;;;;;5048550;28;20049;-82
2022/11/17 05:19:23;;;;;;;1.85;1.08;;;8.70;99.90;;;;;;5049547;28;20057;-83
2022/11/17 05:21:50;;;;;;;1.27;0.90;;;8.70;99.90;;;;;;5016316;28;20075;-83
2022/11/17 05:24:20;;;;;;;1.38;1.10;;;8.70;99.90;;;;;;5024422;28;20696;-83
2022/11/17 05:26:47;;;;;;;1.90;1.10;;;8.70;99.90;;;;;;5032615;28;20074;-83
2022/11/17 05:29:18;;;;;;;4.72;1.80;;;8.60;99.90;;;;;;5026227;28;20294;-82
2022/11/17 05:31:48;;;;;;;1.70;1.20;;;8.60;99.90;;;;;;5026700;28;20153;-82
2022/11/17 05:34:16;;;;;;;2.15;1.80;;;8.70;99.90;;;;;;5027493;28;20542;-80
2022/11/17 05:36:44;;;;;;;2.53;1.25;;;8.70;99.90;;;;;;5029872;28;20784;-81
2022/11/17 05:39:15;;;;;;;2.42;1.42;;;8.70;99.90;;;;;;5038281;28;20071;-80
2022/11/17 05:41:44;;;;;;;1.88;1.20;;;8.60;99.90;;;;;;5023137;28;20558;-81
2022/11/17 05:44:14;;;;;;;5.25;1.60;;;8.60;99.90;;;;;;5020340;28;20049;-80
2022/11/17 05:46:44;;;;;;;2.25;1.20;;;8.60;99.90;;;;;;5024537;28;20056;-80
2022/11/17 05:49:11;;;;;;;1.65;1.15;;;8.60;99.90;;;;;;5034486;28;20546;-79
2022/11/17 05:51:38;;;;;;;2.53;1.67;;;8.60;99.90;;;;;;5021098;28;20423;-78
2022/11/17 05:54:05;;;;;;;2.83;1.80;;;8.60;99.90;;;;;;5007310;28;20135;-80
2022/11/17 05:56:37;;;;;;;1.73;0.93;;;8.50;99.90;;;;;;5023803;28;20156;-79
2022/11/17 05:59:19;;;;;;;1.83;1.30;;;8.60;99.90;;;;;;5023607;28;20048;-79
2022/11/17 06:01:57;;;;;;;2.08;1.02;;;8.50;99.90;;;;;;5042553;28;20087;-81
2022/11/17 06:04:24;;;;;;;1.10;1.00;;;8.50;99.90;;;;;;5025553;28;20372;-78
2022/11/17 06:06:51;;;;;;;1.52;1.10;;;8.50;99.90;;;;;;4996907;28;20048;-78
2022/11/17 06:09:19;;;;;;;1.55;0.90;;;8.50;99.90;;;;;;5021704;28;20072;-79
2022/11/17 06:11:46;;;;;;;2.90;1.33;;;8.50;99.90;;;;;;5016857;28;20129;-77
2022/11/17 06:14:12;;;;;;;3.58;2.70;;;8.50;99.90;;;;;;5030796;28;20559;-78
2022/11/17 06:16:41;;;;;;;1.98;1.08;;;8.50;99.90;;;;;;5014087;28;20068;-79
2022/11/17 06:19:11;;;;;;;1.60;1.10;;;8.40;99.90;;;;;;5007433;28;20412;-78
2022/11/17 06:21:38;;;;;;;2.63;1.17;;;8.40;99.90;;;;;;5008678;28;20059;-79
2022/11/17 06:24:25;;;;;;;1.35;0.80;;;8.40;99.90;;;;;;5030115;28;20153;-78
2022/11/17 06:26:52;;;;;;;1.90;0.95;;;8.30;99.90;;;;;;5040554;28;20912;-80
2022/11/17 06:29:19;;;;;;;1.40;0.93;;;8.40;99.90;;;;;;5023758;28;20052;-79
2022/11/17 06:31:47;;;;;;;1.77;1.23;;;8.30;99.90;;;;;;5024760;28;20058;-80
2022/11/17 06:34:14;;;;;;;2.33;1.00;;;8.30;99.90;;;;;;5042023;28;20388;-79
2022/11/17 06:36:41;;;;;;;1.55;0.95;;;8.30;99.90;;;;;;5030756;28;20075;-77
2022/11/17 06:39:08;;;;;;;2.17;1.00;;;8.30;99.90;;;;;;5002887;28;20041;-79
2022/11/17 06:41:35;;;;;;;1.10;0.98;;;8.30;99.90;;;;;;5014572;28;20496;-78
2022/11/17 06:44:02;;;;;;;2.60;1.10;;;8.30;99.90;;;;;;5042147;28;20056;-78
2022/11/17 06:46:36;;;;;;;1.23;0.98;;;8.30;99.90;;;;;;5023356;28;20052;-82
2022/11/17 06:49:06;;;;;;;1.17;0.85;;;8.30;99.90;;;;;;4994353;28;20057;-80
2022/11/17 06:51:34;;;;;;;1.15;0.90;;;8.30;99.90;;;;;;5009401;28;20044;-81
2022/11/17 06:54:08;;;;;;;1.35;0.65;;;8.30;99.90;;;;;;5059126;28;20141;-81
2022/11/17 06:56:35;;;;;;;1.10;0.77;;;8.30;99.90;;;;;;5045243;28;20105;-81
2022/11/17 06:59:05;;;;;;;1.20;0.90;;;8.30;99.90;;;;;;5028546;28;20071;-81
2022/11/17 07:01:32;;;;;;;3.83;1.08;;;8.30;99.90;;;;;;5021602;28;20429;-81
2022/11/17 07:03:59;;;;;;;3.03;1.15;;;8.30;99.90;;;;;;5026096;28;20155;-82
2022/11/17 07:06:25;;;;;;;2.35;1.10;;;8.30;99.90;;;;;;5061178;28;20140;-82
2022/11/17 07:08:53;;;;;;;1.60;0.82;;;8.30;99.90;;;;;;5027047;28;20482;-81
2022/11/17 07:11:20;;;;;;;2.25;1.13;;;8.30;99.90;;;;;;5026354;28;20064;-81
2022/11/17 07:13:47;;;;;;;1.02;0.65;;;8.20;99.90;;;;;;5023435;28;20161;-75
2022/11/17 07:16:16;;;;;;;2.40;0.82;;;8.20;99.90;;;;;;5013085;28;20049;-77
2022/11/17 07:18:49;;;;;;;4.07;1.33;;;8.20;99.90;;;;;;5008565;28;20496;-77
2022/11/17 07:21:16;;;;;;;2.28;0.88;;;8.30;99.90;;;;;;5007972;28;20102;-76
2022/11/17 07:23:44;;;;;;;2.10;1.10;;;8.30;99.90;;;;;;5023158;28;20077;-77
2022/11/17 07:26:11;;;;;;;2.00;0.70;;;8.30;99.90;;;;;;4991542;28;20053;-77
2022/11/17 07:28:38;;;;;;;3.00;0.90;;;8.20;99.90;;;;;;5007745;28;20144;-77
2022/11/17 07:31:07;;;;;;;1.50;0.68;;;8.20;99.90;;;;;;5020120;28;20057;-77
2022/11/17 07:33:34;;;;;;;1.85;0.80;;;8.30;99.90;;;;;;5043288;28;20616;-76
2022/11/17 07:36:03;;;;;;;1.85;1.00;;;8.20;99.90;;;;;;5043444;28;20651;-76
2022/11/17 07:38:31;;;;;;;0.85;0.60;;;8.20;99.90;;;;;;5027099;28;20048;-77
2022/11/17 07:40:59;;;;;;;3.17;0.82;;;8.20;99.90;;;;;;5027324;28;20479;-77
2022/11/17 07:43:27;;;;;;;1.58;0.82;;;8.30;99.90;;;;;;5003537;28;20470;-76
2022/11/17 07:45:54;;;;;;;2.03;0.77;;;8.20;99.90;;;;;;5061480;28;20048;-78
2022/11/17 07:48:21;;;;;;;2.33;1.20;;;8.30;99.90;;;;;;5010038;28;20498;-78
2022/11/17 07:50:48;;;;;;;1.00;0.90;;;8.20;99.90;;;;;;5026596;28;20110;-78
2022/11/17 07:53:15;;;;;;;1.30;0.82;;;8.20;99.90;;;;;;5026702;28;20079;-78
2022/11/17 07:55:42;;;;;;;1.15;0.98;;;8.20;99.90;;;;;;5061325;28;20044;-79
2022/11/17 07:58:09;;;;;;;2.88;1.40;;;8.20;99.90;;;;;;5011606;28;20152;-79
2022/11/17 08:00:36;;;;;;;3.35;1.40;;;8.20;99.90;;;;;;5027326;28;20055;-79
2022/11/17 08:03:03;;;;;;;2.10;1.02;;;8.20;99.90;;;;;;5010796;28;20052;-78
2022/11/17 08:05:34;;;;;;;1.23;0.98;;;8.20;99.90;;;;;;5010069;28;20135;-79
2022/11/17 08:08:09;;;;;;;2.30;0.98;;;8.20;99.90;;;;;;5044859;28;20052;-79
2022/11/17 08:10:36;;;;;;;1.25;0.93;;;8.20;99.90;;;;;;5033628;28;20081;-79
2022/11/17 08:13:05;;;;;;;2.08;1.10;;;8.30;99.90;;;;;;5008167;28;20064;-80
2022/11/17 08:15:31;;;;;;;2.53;1.10;;;8.30;99.90;;;;;;4990973;28;20069;-79
2022/11/17 08:17:59;;;;;;;1.98;1.42;;;8.30;99.90;;;;;;4990934;28;20087;-79
2022/11/17 08:20:27;;;;;;;2.08;1.38;;;8.30;99.90;;;;;;4998537;28;20151;-79
2022/11/17 08:22:54;;;;;;;2.28;1.05;;;8.30;99.90;;;;;;5027778;28;20507;-79
2022/11/17 08:25:22;;;;;;;1.52;1.17;;;8.30;99.90;;;;;;5026097;28;20112;-79
2022/11/17 08:27:52;;;;;;;3.28;1.77;;;8.30;99.90;;;;;;5027495;28;20056;-81
2022/11/17 08:30:19;;;;;;;2.40;1.40;;;8.30;99.90;;;;;;5043571;28;20143;-81
2022/11/17 08:33:10;;;;;;;1.55;1.17;;;8.30;99.90;;;;;;5043349;28;20657;-81
2022/11/17 08:35:37;;;;;;;1.77;1.40;;;8.40;99.90;;;;;;5043024;28;20063;-82
2022/11/17 08:38:05;;;;;;;2.20;1.77;;;8.30;99.90;;;;;;5026861;28;20060;-81
2022/11/17 08:40:32;;;;;;;3.15;1.50;;;8.30;99.90;;;;;;5026589;28;20051;-81
2022/11/17 08:42:59;;;;;;;2.60;1.55;;;8.30;99.90;;;;;;5027075;28;20163;-80
2022/11/17 08:45:27;;;;;;;4.35;1.90;;;8.40;99.90;;;;;;5028546;28;20079;-81
2022/11/17 08:47:55;;;;;;;1.63;1.40;;;8.40;99.90;;;;;;5030797;28;20608;-81
2022/11/17 08:50:22;;;;;;;2.22;1.42;;;8.40;99.90;;;;;;5029845;28;20131;-81
2022/11/17 08:52:50;;;;;;;3.15;1.75;;;8.40;99.90;;;;;;5031421;28;20059;-83
2022/11/17 08:55:17;;;;;;;2.65;1.60;;;8.40;99.90;;;;;;5030371;28;20125;-83
2022/11/17 08:57:44;;;;;;;2.78;1.98;;;8.50;99.90;;;;;;5048191;28;20613;-83
2022/11/17 09:00:13;;;;;;;2.67;1.58;;;8.50;99.90;;;;;;5047610;28;20596;-83
2022/11/17 09:02:40;;;;;;;2.88;1.70;;;8.50;99.90;;;;;;5033087;28;20168;-85
2022/11/17 09:05:07;;;;;;;3.35;1.85;;;8.50;99.90;;;;;;5033531;28;20106;-84
2022/11/17 09:07:34;;;;;;;4.40;2.05;;;8.50;99.90;;;;;;5034826;28;20060;-86
2022/11/17 09:10:02;;;;;;;3.42;2.05;;;8.50;99.90;;;;;;5035506;28;20490;-84
2022/11/17 09:12:29;;;;;;;3.30;2.00;;;8.50;99.90;;;;;;5020319;28;20106;-86
2022/11/17 09:14:56;;;;;;;1.92;1.60;;;8.50;99.90;;;;;;5021639;28;20474;-87
2022/11/17 09:17:23;;;;;;;2.58;1.83;;;8.50;99.90;;;;;;5037359;28;20117;-85
2022/11/17 09:19:50;;;;;;;5.60;1.60;;;8.50;99.90;;;;;;5019049;28;20135;-87
2022/11/17 09:22:18;;;;;;;4.10;1.70;;;8.60;99.90;;;;;;5022562;28;20045;-82
2022/11/17 09:24:45;;;;;;;1.95;1.20;;;8.60;99.90;;;;;;5028798;28;20084;-85
2022/11/17 09:27:14;;;;;;;3.08;1.60;;;8.70;99.90;;;;;;5010892;28;20051;-86
2022/11/17 09:29:41;;;;;;;4.43;1.90;;;8.70;99.90;;;;;;5025337;28;20055;-87
2022/11/17 09:32:08;;;;;;;1.95;1.50;;;8.70;99.90;;;;;;5025162;28;20060;-87
2022/11/17 09:34:35;;;;;;;2.03;1.60;;;8.80;99.90;;;;;;5046166;28;20048;-87
2022/11/17 09:37:02;;;;;;;2.67;1.45;;;8.80;99.90;;;;;;5011204;28;20051;-88
2022/11/17 09:39:29;;;;;;;3.45;1.77;;;8.80;99.90;;;;;;5032926;28;20071;-88
2022/11/17 09:41:57;;;;;;;2.60;1.60;;;8.90;99.90;;;;;;5026733;28;20126;-87
2022/11/17 09:44:30;;;;;;;2.38;1.60;;;9.00;99.90;;;;;;5049066;28;20078;-85
2022/11/17 09:47:08;;;;;;;2.13;1.50;;;9.00;99.90;;;;;;5046622;28;20075;-86
2022/11/17 09:49:48;;;;;;;4.05;1.73;;;9.20;99.90;;;;;;5048377;28;20052;-84
2022/11/17 09:52:30;;;;;;;3.88;1.90;;;9.20;99.90;;;;;;5040684;28;20210;-90
2022/11/17 09:54:59;;;;;;;2.17;1.23;;;9.30;99.90;;;;;;5026504;28;20384;-94
2022/11/17 09:57:41;;;;;;;1.77;1.25;;;9.50;99.90;;;;;;5040457;28;20045;-92
2022/11/17 10:00:21;;;;;;;2.50;1.77;;;9.70;99.90;;;;;;5039372;28;20056;-92
2022/11/17 10:02:48;;;;;;;2.63;1.83;;;9.70;99.90;;;;;;5058976;28;20079;-92
2022/11/17 10:05:17;;;;;;;1.60;1.27;;;9.70;99.90;;;;;;5057827;28;20062;-92
2022/11/17 10:07:50;;;;;;;3.08;1.67;;;9.80;99.90;;;;;;5057685;28;20052;-91
2022/11/17 10:10:21;;;;;;;6.03;1.52;;;9.90;99.90;;;;;;5053264;28;20080;-93
2022/11/17 10:12:51;;;;;;;1.33;1.23;;;9.90;99.90;;;;;;5042046;28;20060;-92
2022/11/17 10:15:22;;;;;;;2.35;1.48;;;9.90;99.90;;;;;;5020489;28;20247;-92
2022/11/17 10:17:50;;;;;;;2.67;1.10;;;10.00;99.90;;;;;;5004410;28;20045;-92
2022/11/17 10:20:17;;;;;;;4.05;1.60;;;10.10;99.90;;;;;;5022091;28;20061;-90
2022/11/17 10:22:45;;;;;;;2.55;1.60;;;10.10;99.90;;;;;;5004498;28;20128;-92
2022/11/17 10:25:33;;;;;;;2.65;1.30;;;10.10;99.90;;;;;;5025348;28;20140;-91
2022/11/17 10:28:00;;;;;;;1.63;1.25;;;10.10;99.90;;;;;;5056617;28;20052;-93
2022/11/17 10:30:28;;;;;;;2.70;1.25;;;10.10;99.90;;;;;;5055881;28;20365;-91
2022/11/17 10:32:56;;;;;;;1.27;0.90;;;10.10;99.90;;;;;;5038675;28;20060;-90
2022/11/17 10:35:24;;;;;;;2.25;1.48;;;10.20;99.90;;;;;;5039664;28;20052;-90
2022/11/17 10:38:06;;;;;;;2.50;1.27;;;10.10;99.90;;;;;;5039636;28;20058;-91
2022/11/17 10:40:39;;;;;;;3.15;1.33;;;10.00;99.90;;;;;;5071964;28;20151;-91
2022/11/17 10:43:12;;;;;;;2.10;1.10;;;10.10;99.90;;;;;;5054974;28;20052;-91
2022/11/17 10:45:46;;;;;;;2.95;1.50;;;10.10;99.90;;;;;;5071727;28;20139;-90
2022/11/17 10:48:32;;;;;;;1.98;1.33;;;10.10;99.90;;;;;;5039074;28;20044;-90
2022/11/17 10:51:00;;;;;;;2.72;1.50;;;10.10;99.90;;;;;;5047078;28;20045;-90
2022/11/17 10:53:32;;;;;;;3.00;1.73;;;10.10;99.90;;;;;;5021102;28;20048;-90
2022/11/17 10:56:20;;;;;;;2.15;1.33;;;10.10;99.90;;;;;;5019262;28;20044;-89
2022/11/17 10:59:08;;;;;;;1.83;1.23;;;10.20;99.90;;;;;;5038639;28;20053;-89
2022/11/17 11:01:42;;;;;;;1.90;1.30;;;10.30;99.90;;;;;;5037681;28;20535;-89
2022/11/17 11:04:32;;;;;;;2.03;1.17;;;10.50;99.90;;;;;;5001328;28;20131;-88
2022/11/17 11:07:19;;;;;;;4.05;1.40;;;10.50;99.90;;;;;;5021628;28;20044;-90
2022/11/17 11:09:57;;;;;;;2.35;1.50;;;10.50;99.90;;;;;;5021168;28;20052;-89
2022/11/17 11:12:40;;;;;;;1.73;1.20;;;10.50;99.90;;;;;;5053897;28;20044;-88
2022/11/17 11:15:09;;;;;;;;;;;10.50;99.90;;;;;;5037579;28;20052;-88
2022/11/17 11:17:35;;;;;;;2.72;1.30;;;10.50;99.90;;;;;;5052872;28;20007;-90
2022/11/17 11:20:03;;;;;;;1.45;1.10;;;10.60;99.90;;;;;;5019151;28;20048;-88
2022/11/17 11:22:33;;;;;;;1.75;1.27;;;10.60;99.90;;;;;;5052078;28;20067;-88
2022/11/17 11:25:14;;;;;;;4.00;1.73;;;10.60;99.90;;;;;;5048282;28;20080;-88
2022/11/17 11:28:05;;;;;;;3.08;1.60;;;10.60;99.90;;;;;;5033416;28;20052;-88
2022/11/17 11:30:37;;;;;;;3.20;1.75;;;10.60;99.90;;;;;;5031201;28;20127;-88
2022/11/17 11:33:22;;;;;;;3.83;1.90;;;10.70;99.90;;;;;;5015132;28;20056;-87
2022/11/17 11:35:58;;;;;;;2.50;1.20;;;10.70;99.90;;;;;;5055938;28;20152;-87
2022/11/17 11:38:34;;;;;;;2.58;1.70;;;10.80;99.90;;;;;;5049062;28;20056;-86
2022/11/17 11:41:26;;;;;;;1.55;1.38;;;10.80;99.90;;;;;;5047211;28;20076;-86
2022/11/17 11:44:21;;;;;;;1.95;1.40;;;10.80;99.90;;;;;;5050953;28;20079;-87
2022/11/17 11:47:08;;;;;;;2.55;1.50;;;10.80;99.90;;;;;;5065681;28;20519;-88
2022/11/17 11:49:42;;;;;;;4.07;2.03;;;10.90;99.90;;;;;;5047792;28;20059;-85
2022/11/17 11:52:20;;;;;;;1.88;1.40;;;11.00;99.90;;;;;;5039740;28;20055;-86
2022/11/17 11:54:53;;;;;;;2.50;1.40;;;11.00;99.90;;;;;;5003943;28;20064;-85
2022/11/17 11:57:24;;;;;;;3.35;1.40;;;11.10;99.90;;;;;;5025276;28;20558;-86
2022/11/17 12:00:18;;;;;;;3.35;1.65;;;11.00;99.90;;;;;;5021711;28;20550;-85
2022/11/17 12:03:02;;;;;;;4.15;1.85;;;10.90;99.90;;;;;;5020229;28;20152;-86
2022/11/17 12:05:48;;;;;;;3.33;1.52;;;10.90;99.90;;;;;;5045114;28;20051;-85
2022/11/17 12:08:17;;;;;;;3.97;1.48;;;10.90;99.90;;;;;;5043956;28;20139;-84
2022/11/17 12:11:58;;;;;;;2.70;2.15;;;10.90;99.90;;;;;;5042536;28;20052;-85
2022/11/17 12:13:48;;;;;;;2.42;1.60;;;10.90;99.90;;;;;;5042859;28;20053;-84
2022/11/17 12:16:33;;;;;;;2.55;1.70;;;10.90;99.90;;;;;;5029743;28;20575;-85
2022/11/17 12:19:01;;;;;;;2.80;1.58;;;11.00;99.90;;;;;;5041884;28;20217;-86
2022/11/17 12:21:27;;;;;;;3.50;1.73;;;11.00;99.90;;;;;;5046897;28;20242;-83
2022/11/17 12:24:16;;;;;;;4.97;2.10;;;11.00;99.90;;;;;;5015116;28;20048;-85
2022/11/17 12:26:43;;;;;;;2.70;2.13;;;11.10;99.90;;;;;;5031828;28;20090;-85
2022/11/17 12:29:23;;;;;;;2.17;1.60;;;11.10;99.90;;;;;;5014968;28;20072;-84
2022/11/17 12:31:58;;;;;;;1.60;1.42;;;11.30;99.90;;;;;;5014732;28;20333;-85
2022/11/17 12:34:29;;;;;;;2.30;1.67;;;11.40;99.90;;;;;;5001232;28;20062;-85
2022/11/17 12:37:11;;;;;;;3.15;1.75;;;11.40;99.90;;;;;;5016537;28;20528;-85
2022/11/17 12:39:52;;;;;;;2.35;1.63;;;11.50;99.90;;;;;;5033838;28;20618;-85
2022/11/17 12:42:18;;;;;;;3.20;1.83;;;11.60;99.90;;;;;;5012067;28;20049;-87
2022/11/17 12:44:45;;;;;;;2.97;1.77;;;11.70;99.90;;;;;;5030264;28;20051;-86
2022/11/17 12:47:12;;;;;;;2.92;1.63;;;11.80;99.90;;;;;;5064261;28;20052;-85
2022/11/17 12:49:54;;;;;;;3.25;1.73;;;11.90;99.90;;;;;;5046166;28;20614;-84
2022/11/17 12:52:36;;;;;;;3.47;1.58;;;12.00;99.90;;;;;;5048171;28;20051;-84
2022/11/17 12:55:40;;;;;;;3.50;1.73;;;12.10;99.90;;;;;;5064841;28;20059;-85
2022/11/17 12:58:28;;;;;;;2.20;1.50;;;12.10;99.90;;;;;;5034127;28;20075;-85
2022/11/17 13:01:02;;;;;;;2.20;1.30;;;12.20;99.90;;;;;;5046108;28;20055;-84
2022/11/17 13:03:38;;;;;;;3.05;1.38;;;12.30;99.90;;;;;;5042146;28;20052;-84
2022/11/17 13:06:09;;;;;;;1.95;1.55;;;12.40;99.90;;;;;;5057246;28;20095;-84
2022/11/17 13:09:01;;;;;;;1.77;1.20;;;12.50;99.90;;;;;;5032196;28;20049;-85
2022/11/17 13:11:28;;;;;;;2.65;1.30;;;12.50;99.90;;;;;;5047336;28;20495;-84
2022/11/17 13:14:13;;;;;;;2.53;1.40;;;12.40;99.90;;;;;;5028723;28;20196;-84
2022/11/17 13:16:48;;;;;;;2.15;1.40;;;12.50;99.90;;;;;;5038753;28;20408;-83
2022/11/17 13:19:31;;;;;;;2.63;1.67;;;12.50;99.90;;;;;;5030262;28;20052;-84
2022/11/17 13:22:23;;;;;;;2.95;1.70;;;12.50;99.90;;;;;;5045844;28;20510;-84
2022/11/17 13:24:52;;;;;;;1.67;1.25;;;12.60;99.90;;;;;;5013796;28;20222;-84
2022/11/17 13:27:29;;;;;;;3.40;1.70;;;12.70;99.90;;;;;;5047330;28;20070;-84
2022/11/17 13:30:25;;;;;;;2.53;1.42;;;12.80;99.90;;;;;;5045326;28;20048;-82
2022/11/17 13:32:54;;;;;;;2.22;1.45;;;12.80;99.90;;;;;;5033975;28;20048;-84
2022/11/17 13:35:34;;;;;;;1.92;1.20;;;12.90;99.90;;;;;;5029309;28;20471;-84
2022/11/17 13:38:10;;;;;;;3.55;1.52;;;13.00;99.90;;;;;;5028533;28;20048;-83
2022/11/17 13:40:38;;;;;;;2.25;1.60;;;13.00;99.90;;;;;;5037388;28;20083;-83
2022/11/17 13:43:07;;;;;;;1.77;1.40;;;13.00;99.90;;;;;;5020951;28;20106;-83
2022/11/17 13:45:34;;;;;;;2.03;1.45;;;13.00;99.90;;;;;;5028632;28;20068;-83